createdAt,value
2023-12-11T00:00:25.293Z,80.43
2023-12-11T00:01:22.120Z,72.07
2023-12-11T00:02:18.916Z,72.97
2023-12-11T00:03:15.590Z,77.97
2023-12-11T00:04:15.168Z,80.88
2023-12-11T00:05:11.944Z,83.18
2023-12-11T00:06:08.811Z,80.03
2023-12-11T00:07:05.494Z,80.15
2023-12-11T00:08:02.220Z,77.18
2023-12-11T00:08:58.903Z,83.80
2023-12-11T00:09:55.769Z,78.03
2023-12-11T00:10:52.591Z,90.90
2023-12-11T00:11:49.258Z,83.07
2023-12-11T00:12:45.920Z,79.05
2023-12-11T00:13:42.726Z,85.72
2023-12-11T00:14:39.365Z,82.70
2023-12-11T00:15:36.021Z,83.53
2023-12-11T00:16:32.726Z,83.82
2023-12-11T00:17:30.249Z,88.90
2023-12-11T00:18:27.229Z,82.95
2023-12-11T00:19:24.148Z,91.38
2023-12-11T00:20:20.911Z,81.10
2023-12-11T00:21:17.706Z,74.15
2023-12-11T00:22:14.384Z,86.13
2023-12-11T00:23:11.086Z,78.93
2023-12-11T00:24:07.802Z,80.00
2023-12-11T00:25:05.937Z,78.13
2023-12-11T00:26:02.588Z,81.63
2023-12-11T00:26:59.250Z,78.13
2023-12-11T00:27:56.154Z,83.93
2023-12-11T00:28:53.330Z,78.18
2023-12-11T00:29:50.705Z,83.40
2023-12-11T00:30:47.422Z,79.13
2023-12-11T00:31:44.191Z,83.90
2023-12-11T00:32:40.922Z,87.55
2023-12-11T00:33:37.964Z,93.70
2023-12-11T00:34:34.855Z,86.13
2023-12-11T00:35:31.568Z,82.72
2023-12-11T00:36:28.422Z,88.65
2023-12-11T00:37:25.197Z,91.35
2023-12-11T00:38:21.889Z,90.10
2023-12-11T00:39:18.591Z,92.53
2023-12-11T00:40:15.413Z,88.95
2023-12-11T00:41:12.400Z,94.57
2023-12-11T00:42:09.073Z,105.50
2023-12-11T00:43:05.873Z,94.72
2023-12-11T00:44:02.535Z,85.18
2023-12-11T00:44:59.302Z,97.55
2023-12-11T00:45:55.980Z,85.13
2023-12-11T00:46:52.647Z,91.07
2023-12-11T00:47:49.354Z,93.15
2023-12-11T00:48:46.367Z,88.97
2023-12-11T00:49:43.872Z,89.75
2023-12-11T00:50:40.592Z,92.55
2023-12-11T00:51:37.260Z,88.53
2023-12-11T00:52:34.010Z,92.18
2023-12-11T00:53:30.680Z,92.95
2023-12-11T00:54:27.525Z,97.50
2023-12-11T00:55:24.218Z,101.88
2023-12-11T00:56:20.949Z,95.82
2023-12-11T00:57:17.673Z,93.43
2023-12-11T00:58:14.439Z,96.32
2023-12-11T00:59:11.134Z,99.65
2023-12-11T01:00:08.539Z,91.07
2023-12-11T01:01:06.325Z,89.50
2023-12-11T01:02:03.136Z,103.57
2023-12-11T01:02:59.896Z,95.70
2023-12-11T01:03:56.685Z,104.18
2023-12-11T01:04:53.433Z,95.03
2023-12-11T01:05:50.164Z,86.93
2023-12-11T01:06:46.859Z,94.45
2023-12-11T01:07:43.554Z,95.32
2023-12-11T01:08:41.008Z,96.72
2023-12-11T01:09:38.273Z,91.65
2023-12-11T01:10:35.033Z,93.70
2023-12-11T01:11:31.713Z,98.82
2023-12-11T01:12:28.495Z,97.22
2023-12-11T01:13:26.068Z,95.97
2023-12-11T01:14:22.771Z,90.90
2023-12-11T01:15:19.532Z,87.38
2023-12-11T01:16:16.190Z,85.85
2023-12-11T01:17:36.961Z,92.45
2023-12-11T01:18:30.005Z,80.07
2023-12-11T01:19:27.025Z,80.47
2023-12-11T01:20:23.757Z,87.65
2023-12-11T01:21:20.457Z,73.78
2023-12-11T01:22:17.218Z,71.97
2023-12-11T01:23:13.967Z,70.15
2023-12-11T01:24:10.698Z,68.05
2023-12-11T01:25:09.820Z,77.28
2023-12-11T01:26:06.689Z,72.28
2023-12-11T01:27:04.568Z,60.75
2023-12-11T01:28:01.261Z,65.60
2023-12-11T01:28:58.039Z,65.80
2023-12-11T01:29:54.733Z,72.55
2023-12-11T01:30:51.428Z,69.07
2023-12-11T01:31:48.162Z,64.07
2023-12-11T01:32:44.861Z,56.00
2023-12-11T01:33:41.574Z,52.60
2023-12-11T01:34:38.476Z,55.53
2023-12-11T01:35:35.415Z,59.53
2023-12-11T01:36:32.131Z,51.15
2023-12-11T01:37:28.977Z,53.00
2023-12-11T01:38:25.818Z,54.97
2023-12-11T01:39:22.570Z,51.42
2023-12-11T01:40:19.339Z,39.83
2023-12-11T01:41:16.077Z,46.63
2023-12-11T01:42:12.756Z,51.65
2023-12-11T01:43:17.664Z,44.03
2023-12-11T01:44:15.816Z,46.05
2023-12-11T01:45:12.738Z,43.33
2023-12-11T01:46:14.896Z,47.28
2023-12-11T01:47:11.900Z,43.35
2023-12-11T01:48:12.731Z,31.30
2023-12-11T01:49:10.136Z,31.60
2023-12-11T01:50:09.535Z,30.40
2023-12-11T01:51:08.286Z,32.53
2023-12-11T01:52:07.019Z,37.72
2023-12-11T01:53:04.761Z,39.25
2023-12-11T01:54:02.058Z,32.55
2023-12-11T01:54:58.867Z,29.65
2023-12-11T01:55:55.828Z,30.63
2023-12-11T01:56:52.796Z,30.88
2023-12-11T01:57:49.521Z,30.63
2023-12-11T01:58:47.007Z,33.13
2023-12-11T01:59:46.771Z,35.83
2023-12-11T02:00:45.665Z,30.00
2023-12-11T02:01:45.242Z,32.63
2023-12-11T02:02:42.608Z,30.55
2023-12-11T02:03:40.057Z,31.20
2023-12-11T02:04:36.937Z,26.60
2023-12-11T02:05:33.702Z,32.65
2023-12-11T02:06:30.435Z,34.70
2023-12-11T02:07:27.394Z,30.33
2023-12-11T02:08:24.748Z,30.75
2023-12-11T02:09:21.438Z,35.70
2023-12-11T02:10:18.199Z,34.55
2023-12-11T02:11:15.284Z,33.50
2023-12-11T02:12:12.247Z,37.47
2023-12-11T02:13:09.432Z,32.10
2023-12-11T02:14:06.103Z,24.05
2023-12-11T02:15:02.766Z,31.45
2023-12-11T02:15:59.559Z,28.50
2023-12-11T02:16:56.208Z,30.48
2023-12-11T02:17:52.960Z,29.77
2023-12-11T02:18:49.962Z,28.65
2023-12-11T02:19:46.808Z,23.42
2023-12-11T02:20:44.811Z,26.48
2023-12-11T02:21:41.476Z,25.85
2023-12-11T02:22:38.565Z,24.55
2023-12-11T02:23:41.268Z,21.85
2023-12-11T02:24:47.156Z,27.20
2023-12-11T02:25:47.098Z,25.90
2023-12-11T02:26:44.395Z,25.80
2023-12-11T02:27:41.094Z,26.42
2023-12-11T02:28:37.838Z,27.67
2023-12-11T02:29:34.480Z,27.52
2023-12-11T02:30:36.795Z,27.88
2023-12-11T02:31:33.469Z,28.05
2023-12-11T02:32:30.204Z,28.55
2023-12-11T02:33:27.132Z,30.88
2023-12-11T02:34:23.937Z,28.25
2023-12-11T02:35:20.721Z,29.00
2023-12-11T02:36:17.541Z,28.00
2023-12-11T02:37:14.977Z,28.25
2023-12-11T02:38:11.736Z,33.60
2023-12-11T02:39:08.716Z,32.67
2023-12-11T02:40:06.316Z,29.42
2023-12-11T02:41:03.513Z,34.80
2023-12-11T02:42:00.250Z,30.58
2023-12-11T02:42:57.036Z,28.77
2023-12-11T02:43:53.742Z,29.55
2023-12-11T02:44:50.424Z,32.08
2023-12-11T02:45:47.148Z,30.30
2023-12-11T02:46:43.857Z,32.88
2023-12-11T02:47:40.597Z,32.05
2023-12-11T02:48:37.489Z,32.55
2023-12-11T02:49:34.370Z,32.70
2023-12-11T02:50:32.071Z,29.58
2023-12-11T02:51:28.763Z,32.13
2023-12-11T02:52:25.458Z,32.72
2023-12-11T02:53:22.184Z,31.58
2023-12-11T02:54:18.899Z,32.97
2023-12-11T02:55:15.769Z,33.22
2023-12-11T02:56:12.501Z,32.63
2023-12-11T02:57:09.136Z,32.72
2023-12-11T02:58:05.913Z,34.97
2023-12-11T02:59:02.577Z,31.50
2023-12-11T02:59:59.215Z,36.55
2023-12-11T03:00:56.058Z,39.92
2023-12-11T03:01:52.792Z,33.35
2023-12-11T03:02:49.546Z,34.63
2023-12-11T03:03:46.286Z,34.75
2023-12-11T03:04:43.151Z,39.22
2023-12-11T03:05:39.986Z,36.35
2023-12-11T03:06:36.832Z,34.28
2023-12-11T03:07:33.540Z,37.60
2023-12-11T03:08:30.288Z,39.13
2023-12-11T03:09:26.975Z,33.17
2023-12-11T03:10:23.963Z,37.13
2023-12-11T03:11:20.635Z,34.53
2023-12-11T03:12:17.405Z,42.13
2023-12-11T03:13:14.093Z,37.05
2023-12-11T03:14:10.762Z,45.85
2023-12-11T03:15:08.654Z,46.20
2023-12-11T03:16:05.625Z,40.00
2023-12-11T03:17:02.316Z,40.25
2023-12-11T03:17:59.843Z,42.63
2023-12-11T03:18:56.703Z,40.80
2023-12-11T03:19:54.108Z,38.42
2023-12-11T03:20:50.820Z,40.08
2023-12-11T03:21:47.589Z,40.70
2023-12-11T03:22:44.369Z,43.10
2023-12-11T03:23:41.194Z,38.80
2023-12-11T03:24:37.953Z,36.72
2023-12-11T03:25:34.632Z,39.80
2023-12-11T03:26:31.529Z,42.88
2023-12-11T03:27:28.340Z,40.08
2023-12-11T03:28:26.389Z,43.10
2023-12-11T03:29:23.104Z,39.65
2023-12-11T03:30:19.785Z,46.22
2023-12-11T03:31:16.442Z,39.35
2023-12-11T03:32:13.230Z,44.22
2023-12-11T03:33:09.911Z,40.70
2023-12-11T03:34:06.733Z,43.70
2023-12-11T03:35:04.547Z,47.20
2023-12-11T03:36:01.244Z,41.80
2023-12-11T03:36:58.023Z,40.30
2023-12-11T03:37:54.702Z,37.53
2023-12-11T03:38:51.386Z,43.05
2023-12-11T03:39:48.073Z,43.03
2023-12-11T03:40:44.794Z,40.85
2023-12-11T03:41:41.467Z,41.10
2023-12-11T03:42:38.201Z,42.78
2023-12-11T03:43:34.919Z,40.80
2023-12-11T03:44:31.578Z,41.30
2023-12-11T03:45:28.366Z,46.72
2023-12-11T03:46:25.130Z,47.55
2023-12-11T03:47:23.162Z,42.08
2023-12-11T03:48:19.921Z,46.40
2023-12-11T03:49:18.093Z,43.22
2023-12-11T03:50:15.073Z,44.67
2023-12-11T03:51:11.737Z,37.53
2023-12-11T03:52:08.549Z,41.92
2023-12-11T03:53:05.247Z,43.58
2023-12-11T03:54:02.068Z,41.92
2023-12-11T03:54:59.197Z,45.15
2023-12-11T03:55:55.976Z,51.45
2023-12-11T03:56:52.627Z,44.85
2023-12-11T03:57:49.275Z,43.75
2023-12-11T03:58:45.963Z,47.65
2023-12-11T03:59:42.704Z,39.90
2023-12-11T04:00:39.478Z,41.25
2023-12-11T04:01:36.417Z,41.45
2023-12-11T04:02:33.251Z,46.80
2023-12-11T04:03:30.060Z,38.60
2023-12-11T04:04:26.879Z,37.72
2023-12-11T04:05:23.649Z,43.90
2023-12-11T04:06:20.379Z,43.47
2023-12-11T04:07:17.188Z,41.58
2023-12-11T04:08:13.912Z,42.22
2023-12-11T04:09:10.614Z,41.35
2023-12-11T04:10:07.963Z,40.58
2023-12-11T04:11:04.870Z,40.13
2023-12-11T04:12:01.544Z,43.83
2023-12-11T04:13:00.802Z,45.75
2023-12-11T04:13:57.531Z,46.65
2023-12-11T04:14:54.159Z,39.10
2023-12-11T04:15:50.868Z,40.22
2023-12-11T04:16:47.595Z,39.50
2023-12-11T04:17:44.476Z,42.35
2023-12-11T04:18:42.373Z,43.05
2023-12-11T04:19:39.199Z,47.42
2023-12-11T04:20:36.002Z,43.20
2023-12-11T04:21:32.881Z,43.67
2023-12-11T04:22:29.602Z,43.85
2023-12-11T04:23:26.300Z,47.33
2023-12-11T04:24:23.007Z,42.22
2023-12-11T04:25:19.746Z,43.45
2023-12-11T04:26:16.408Z,42.08
2023-12-11T04:27:13.101Z,44.17
2023-12-11T04:28:09.852Z,36.15
2023-12-11T04:29:06.747Z,39.55
2023-12-11T04:30:03.663Z,43.42
2023-12-11T04:31:00.393Z,42.60
2023-12-11T04:31:57.069Z,41.33
2023-12-11T04:32:53.868Z,45.72
2023-12-11T04:33:51.391Z,40.28
2023-12-11T04:34:48.204Z,41.63
2023-12-11T04:35:49.046Z,44.33
2023-12-11T04:36:47.939Z,39.83
2023-12-11T04:37:44.713Z,40.80
2023-12-11T04:38:41.423Z,38.22
2023-12-11T04:39:38.231Z,37.75
2023-12-11T04:40:35.031Z,38.75
2023-12-11T04:41:31.770Z,42.08
2023-12-11T04:42:28.399Z,40.97
2023-12-11T04:43:26.493Z,39.60
2023-12-11T04:44:24.352Z,46.00
2023-12-11T04:45:21.019Z,42.42
2023-12-11T04:46:17.788Z,38.25
2023-12-11T04:47:14.443Z,38.75
2023-12-11T04:48:11.163Z,41.85
2023-12-11T04:49:08.006Z,37.22
2023-12-11T04:50:05.087Z,42.92
2023-12-11T04:51:02.094Z,38.60
2023-12-11T04:51:59.085Z,39.10
2023-12-11T04:52:55.903Z,36.95
2023-12-11T04:53:52.612Z,38.10
2023-12-11T04:54:49.253Z,41.00
2023-12-11T04:55:46.141Z,42.33
2023-12-11T04:56:42.853Z,39.45
2023-12-11T04:57:39.612Z,37.40
2023-12-11T04:58:36.322Z,38.22
2023-12-11T04:59:33.019Z,41.45
2023-12-11T05:00:29.667Z,37.67
2023-12-11T05:01:28.053Z,41.40
2023-12-11T05:02:24.915Z,37.92
2023-12-11T05:03:21.835Z,38.38
2023-12-11T05:04:18.559Z,38.80
2023-12-11T05:05:17.660Z,42.70
2023-12-11T05:06:14.369Z,38.55
2023-12-11T05:07:11.213Z,39.75
2023-12-11T05:08:07.885Z,39.80
2023-12-11T05:09:04.562Z,41.33
2023-12-11T05:10:01.253Z,39.97
2023-12-11T05:10:58.328Z,39.85
2023-12-11T05:11:54.970Z,42.55
2023-12-11T05:12:51.661Z,39.28
2023-12-11T05:13:48.342Z,42.95
2023-12-11T05:14:45.035Z,39.00
2023-12-11T05:15:41.819Z,40.47
2023-12-11T05:16:38.649Z,42.00
2023-12-11T05:17:35.739Z,40.75
2023-12-11T05:18:32.595Z,41.63
2023-12-11T05:19:29.374Z,38.88
2023-12-11T05:20:26.095Z,41.25
2023-12-11T05:21:23.308Z,38.80
2023-12-11T05:22:20.136Z,36.92
2023-12-11T05:23:16.821Z,39.08
2023-12-11T05:24:13.551Z,37.65
2023-12-11T05:25:10.367Z,37.38
2023-12-11T05:26:07.056Z,36.85
2023-12-11T05:27:03.832Z,38.10
2023-12-11T05:28:00.602Z,38.65
2023-12-11T05:28:57.656Z,38.55
2023-12-11T05:29:54.361Z,39.20
2023-12-11T05:30:51.105Z,40.92
2023-12-11T05:31:47.773Z,34.78
2023-12-11T05:32:45.488Z,37.42
2023-12-11T05:33:42.575Z,40.85
2023-12-11T05:34:39.422Z,43.03
2023-12-11T05:35:36.286Z,42.85
2023-12-11T05:36:34.641Z,40.47
2023-12-11T05:37:31.566Z,36.03
2023-12-11T05:38:28.474Z,37.75
2023-12-11T05:39:25.159Z,40.03
2023-12-11T05:40:23.847Z,44.33
2023-12-11T05:41:20.948Z,36.78
2023-12-11T05:42:17.628Z,38.28
2023-12-11T05:43:14.513Z,41.28
2023-12-11T05:44:11.277Z,39.30
2023-12-11T05:45:09.637Z,39.45
2023-12-11T05:46:07.393Z,42.45
2023-12-11T05:47:04.191Z,43.60
2023-12-11T05:48:00.932Z,40.05
2023-12-11T05:48:57.756Z,37.97
2023-12-11T05:49:54.592Z,38.55
2023-12-11T05:50:51.368Z,39.85
2023-12-11T05:51:48.174Z,37.50
2023-12-11T05:52:45.743Z,37.55
2023-12-11T05:53:42.588Z,36.58
2023-12-11T05:54:39.304Z,36.17
2023-12-11T05:55:36.091Z,37.50
2023-12-11T05:56:32.826Z,34.78
2023-12-11T05:57:29.661Z,35.20
2023-12-11T05:58:26.503Z,33.83
2023-12-11T05:59:23.233Z,35.75
2023-12-11T06:00:20.335Z,36.05
2023-12-11T06:01:17.163Z,35.00
2023-12-11T06:02:13.961Z,33.30
2023-12-11T06:03:11.592Z,35.97
2023-12-11T06:04:08.514Z,30.10
2023-12-11T06:05:05.723Z,32.40
2023-12-11T06:06:02.521Z,35.70
2023-12-11T06:06:59.182Z,35.58
2023-12-11T06:07:55.888Z,34.38
2023-12-11T06:08:52.673Z,33.47
2023-12-11T06:09:49.701Z,33.92
2023-12-11T06:10:46.442Z,38.97
2023-12-11T06:11:43.102Z,36.97
2023-12-11T06:12:39.853Z,37.33
2023-12-11T06:13:36.636Z,34.28
2023-12-11T06:14:33.350Z,34.55
2023-12-11T06:15:30.054Z,34.50
2023-12-11T06:16:26.700Z,32.83
2023-12-11T06:17:23.405Z,33.65
2023-12-11T06:18:20.335Z,30.88
2023-12-11T06:19:17.157Z,35.08
2023-12-11T06:20:13.916Z,31.27
2023-12-11T06:21:20.805Z,36.05
2023-12-11T06:22:17.604Z,30.33
2023-12-11T06:23:14.336Z,29.40
2023-12-11T06:24:10.996Z,28.80
2023-12-11T06:25:08.408Z,30.48
2023-12-11T06:26:05.182Z,30.23
2023-12-11T06:27:01.865Z,26.90
2023-12-11T06:27:58.667Z,26.30
2023-12-11T06:28:55.554Z,29.35
2023-12-11T06:29:52.403Z,28.58
2023-12-11T06:30:49.182Z,28.25
2023-12-11T06:31:45.892Z,27.27
2023-12-11T06:32:42.675Z,28.05
2023-12-11T06:33:41.571Z,29.73
2023-12-11T06:34:39.277Z,31.88
2023-12-11T06:35:36.063Z,27.20
2023-12-11T06:36:32.996Z,27.17
2023-12-11T06:37:29.973Z,24.48
2023-12-11T06:38:26.813Z,25.58
2023-12-11T06:39:24.268Z,27.40
2023-12-11T06:40:21.064Z,27.30
2023-12-11T06:41:18.710Z,26.15
2023-12-11T06:42:15.578Z,26.40
2023-12-11T06:43:12.280Z,24.05
2023-12-11T06:44:10.860Z,23.75
2023-12-11T06:45:09.903Z,29.00
2023-12-11T06:46:07.057Z,28.20
2023-12-11T06:47:03.887Z,25.25
2023-12-11T06:48:00.590Z,24.00
2023-12-11T06:49:00.745Z,23.05
2023-12-11T06:49:57.705Z,22.90
2023-12-11T06:50:57.937Z,22.98
2023-12-11T06:51:56.745Z,21.50
2023-12-11T06:52:53.524Z,23.38
2023-12-11T06:53:50.566Z,20.55
2023-12-11T06:54:47.587Z,21.92
2023-12-11T06:55:44.226Z,23.63
2023-12-11T06:56:40.970Z,21.02
2023-12-11T06:57:37.712Z,24.25
2023-12-11T06:58:34.478Z,21.75
2023-12-11T06:59:31.376Z,21.20
2023-12-11T07:00:28.130Z,18.13
2023-12-11T07:01:32.470Z,21.13
2023-12-11T07:02:29.335Z,19.67
2023-12-11T07:03:26.104Z,19.35
2023-12-11T07:04:22.919Z,19.58
2023-12-11T07:05:19.949Z,20.08
2023-12-11T07:06:18.831Z,22.98
2023-12-11T07:07:16.029Z,25.02
2023-12-11T07:08:12.736Z,19.48
2023-12-11T07:09:11.314Z,19.73
2023-12-11T07:10:09.087Z,20.00
2023-12-11T07:11:05.928Z,22.15
2023-12-11T07:12:02.800Z,20.42
2023-12-11T07:12:59.551Z,21.83
2023-12-11T07:13:56.537Z,18.35
2023-12-11T07:14:53.516Z,20.63
2023-12-11T07:15:50.286Z,19.27
2023-12-11T07:16:47.083Z,19.45
2023-12-11T07:17:43.811Z,21.05
2023-12-11T07:18:40.814Z,18.42
2023-12-11T07:19:37.713Z,21.95
2023-12-11T07:20:34.956Z,19.58
2023-12-11T07:21:31.748Z,18.23
2023-12-11T07:22:28.518Z,20.13
2023-12-11T07:23:25.142Z,18.52
2023-12-11T07:24:21.849Z,21.63
2023-12-11T07:25:18.834Z,22.52
2023-12-11T07:26:15.917Z,44.70
2023-12-11T07:27:12.621Z,34.15
2023-12-11T07:28:09.358Z,30.17
2023-12-11T07:29:08.863Z,45.75
2023-12-11T07:30:06.268Z,34.58
2023-12-11T07:31:04.528Z,20.88
2023-12-11T07:32:01.197Z,24.30
2023-12-11T07:32:57.961Z,19.60
2023-12-11T07:33:57.046Z,26.08
2023-12-11T07:34:54.208Z,20.35
2023-12-11T07:35:50.985Z,21.15
2023-12-11T07:36:47.720Z,18.65
2023-12-11T07:37:44.425Z,19.05
2023-12-11T07:38:41.189Z,21.15
2023-12-11T07:39:37.889Z,17.90
2023-12-11T07:40:34.608Z,17.88
2023-12-11T07:41:31.291Z,16.38
2023-12-11T07:42:27.964Z,20.73
2023-12-11T07:43:25.086Z,19.92
2023-12-11T07:44:22.660Z,19.05
2023-12-11T07:45:19.483Z,22.58
2023-12-11T07:46:21.201Z,17.35
2023-12-11T07:47:17.943Z,15.50
2023-12-11T07:48:14.795Z,18.67
2023-12-11T07:49:15.057Z,18.48
2023-12-11T07:50:12.042Z,16.63
2023-12-11T07:51:18.052Z,19.17
2023-12-11T07:52:15.157Z,16.50
2023-12-11T07:53:11.848Z,12.85
2023-12-11T07:54:08.594Z,15.88
2023-12-11T07:55:06.779Z,14.77
2023-12-11T07:56:05.018Z,28.02
2023-12-11T07:57:01.667Z,17.95
2023-12-11T07:57:59.275Z,16.88
2023-12-11T07:58:56.004Z,19.08
2023-12-11T07:59:53.566Z,17.73
2023-12-11T08:00:50.308Z,15.38
2023-12-11T08:01:47.382Z,14.38
2023-12-11T08:02:44.098Z,13.30
2023-12-11T08:03:41.424Z,11.40
2023-12-11T08:04:41.478Z,14.85
2023-12-11T08:05:38.641Z,16.00
2023-12-11T08:06:40.921Z,14.43
2023-12-11T08:07:38.410Z,15.57
2023-12-11T08:08:41.336Z,13.35
2023-12-11T08:09:39.002Z,16.27
2023-12-11T08:10:36.266Z,15.18
2023-12-11T08:11:33.042Z,15.25
2023-12-11T08:12:30.145Z,12.30
2023-12-11T08:13:26.825Z,13.43
2023-12-11T08:14:23.495Z,11.82
2023-12-11T08:15:20.236Z,11.90
2023-12-11T08:16:17.754Z,15.98
2023-12-11T08:17:14.578Z,15.38
2023-12-11T08:18:11.365Z,14.63
2023-12-11T08:19:08.263Z,15.15
2023-12-11T08:20:09.746Z,15.77
2023-12-11T08:21:08.200Z,12.60
2023-12-11T08:22:05.525Z,15.18
2023-12-11T08:23:02.223Z,12.85
2023-12-11T08:23:58.883Z,15.35
2023-12-11T08:24:55.872Z,12.80
2023-12-11T08:25:52.643Z,12.80
2023-12-11T08:26:49.335Z,16.63
2023-12-11T08:27:46.145Z,15.77
2023-12-11T08:28:42.876Z,14.75
2023-12-11T08:29:39.530Z,15.18
2023-12-11T08:30:36.233Z,15.57
2023-12-11T08:31:33.003Z,15.50
2023-12-11T08:32:29.823Z,12.00
2023-12-11T08:33:26.643Z,13.32
2023-12-11T08:34:23.496Z,13.45
2023-12-11T08:35:20.203Z,18.30
2023-12-11T08:36:17.063Z,13.60
2023-12-11T08:37:13.833Z,15.05
2023-12-11T08:38:10.735Z,12.38
2023-12-11T08:39:07.797Z,15.10
2023-12-11T08:40:06.619Z,12.43
2023-12-11T08:41:03.813Z,11.45
2023-12-11T08:42:00.584Z,13.60
2023-12-11T08:42:57.403Z,15.00
2023-12-11T08:43:54.229Z,13.05
2023-12-11T08:44:50.865Z,15.18
2023-12-11T08:45:47.681Z,12.60
2023-12-11T08:46:44.712Z,15.00
2023-12-11T08:47:44.282Z,16.27
2023-12-11T08:48:41.623Z,13.73
2023-12-11T08:49:38.495Z,12.02
2023-12-11T08:50:35.977Z,14.38
2023-12-11T08:51:33.891Z,17.38
2023-12-11T08:52:30.872Z,15.57
2023-12-11T08:53:27.521Z,11.93
2023-12-11T08:54:24.193Z,15.07
2023-12-11T08:55:21.031Z,17.95
2023-12-11T08:56:20.756Z,13.60
2023-12-11T08:57:17.518Z,13.95
2023-12-11T08:58:14.332Z,14.13
2023-12-11T08:59:11.048Z,16.20
2023-12-11T09:00:09.009Z,16.17
2023-12-11T09:01:06.545Z,13.63
2023-12-11T09:02:03.502Z,13.43
2023-12-11T09:03:00.336Z,14.18
2023-12-11T09:03:57.160Z,17.33
2023-12-11T09:04:54.381Z,16.73
2023-12-11T09:05:52.034Z,13.85
2023-12-11T09:06:49.477Z,13.98
2023-12-11T09:07:46.351Z,15.82
2023-12-11T09:08:43.595Z,14.82
2023-12-11T09:09:40.377Z,16.05
2023-12-11T09:10:37.326Z,16.00
2023-12-11T09:11:33.990Z,18.27
2023-12-11T09:12:33.804Z,16.27
2023-12-11T09:13:30.942Z,14.30
2023-12-11T09:14:27.580Z,16.85
2023-12-11T09:15:24.251Z,14.70
2023-12-11T09:16:21.024Z,16.13
2023-12-11T09:17:17.773Z,17.98
2023-12-11T09:18:14.612Z,16.73
2023-12-11T09:19:11.384Z,18.85
2023-12-11T09:20:11.304Z,19.08
2023-12-11T09:21:08.238Z,17.63
2023-12-11T09:22:05.200Z,15.13
2023-12-11T09:23:02.108Z,15.88
2023-12-11T09:23:58.838Z,13.90
2023-12-11T09:24:55.652Z,16.98
2023-12-11T09:25:52.355Z,15.63
2023-12-11T09:26:48.982Z,18.02
2023-12-11T09:27:47.465Z,19.77
2023-12-11T09:28:51.706Z,17.58
2023-12-11T09:29:51.955Z,15.63
2023-12-11T09:30:48.751Z,19.17
2023-12-11T09:31:45.783Z,21.50
2023-12-11T09:32:43.097Z,21.80
2023-12-11T09:33:41.783Z,21.73
2023-12-11T09:34:38.993Z,20.58
2023-12-11T09:35:36.139Z,20.98
2023-12-11T09:36:32.885Z,16.05
2023-12-11T09:37:29.894Z,17.08
2023-12-11T09:38:26.714Z,20.38
2023-12-11T09:39:23.736Z,17.38
2023-12-11T09:40:20.860Z,13.93
2023-12-11T09:41:17.649Z,12.38
2023-12-11T09:42:18.501Z,14.05
2023-12-11T09:43:18.074Z,14.90
2023-12-11T09:44:14.723Z,14.98
2023-12-11T09:45:13.155Z,14.38
2023-12-11T09:46:17.373Z,13.45
2023-12-11T09:47:27.538Z,10.07
2023-12-11T09:48:24.472Z,16.85
2023-12-11T09:49:22.133Z,11.93
2023-12-11T09:50:19.912Z,10.52
2023-12-11T09:51:17.904Z,13.07
2023-12-11T09:52:14.879Z,17.00
2023-12-11T09:53:11.767Z,10.57
2023-12-11T09:54:09.264Z,10.75
2023-12-11T09:55:06.488Z,11.88
2023-12-11T09:56:04.186Z,10.20
2023-12-11T09:57:02.192Z,11.15
2023-12-11T09:58:00.027Z,11.27
2023-12-11T09:58:57.720Z,11.07
2023-12-11T09:59:54.671Z,14.73
2023-12-11T10:00:51.589Z,12.50
2023-12-11T10:01:49.755Z,19.48
2023-12-11T10:02:51.935Z,12.70
2023-12-11T10:03:48.736Z,9.80
2023-12-11T10:05:05.636Z,10.48
2023-12-11T10:06:04.401Z,11.00
2023-12-11T10:07:01.159Z,11.82
2023-12-11T10:07:57.880Z,8.32
2023-12-11T10:08:54.997Z,11.30
2023-12-11T10:09:51.776Z,11.35
2023-12-11T10:10:48.447Z,12.05
2023-12-11T10:11:58.503Z,8.75
2023-12-11T10:12:56.616Z,11.60
2023-12-11T10:13:53.512Z,13.05
2023-12-11T10:15:02.347Z,8.93
2023-12-11T10:15:59.510Z,9.95
2023-12-11T10:16:56.353Z,10.05
2023-12-11T10:18:14.059Z,9.18
2023-12-11T10:19:11.152Z,9.70
2023-12-11T10:20:16.566Z,10.93
2023-12-11T10:21:13.311Z,9.43
2023-12-11T10:22:27.470Z,12.85
2023-12-11T10:23:24.826Z,8.82
2023-12-11T10:24:21.620Z,9.38
2023-12-11T10:25:29.465Z,11.15
2023-12-11T10:26:26.187Z,10.93
2023-12-11T10:27:27.605Z,11.95
2023-12-11T10:28:25.263Z,11.38
2023-12-11T10:29:24.569Z,10.63
2023-12-11T10:30:21.754Z,9.88
2023-12-11T10:31:18.600Z,11.18
2023-12-11T10:32:15.291Z,9.30
2023-12-11T10:33:13.101Z,8.95
2023-12-11T10:34:10.080Z,10.25
2023-12-11T10:35:08.092Z,7.35
2023-12-11T10:36:13.477Z,7.53
2023-12-11T10:37:19.909Z,13.23
2023-12-11T10:38:41.227Z,12.50
2023-12-11T10:40:33.949Z,7.70
2023-12-11T10:41:30.741Z,6.35
2023-12-11T10:42:28.747Z,10.20
2023-12-11T10:43:25.619Z,9.70
2023-12-11T10:44:39.432Z,8.13
2023-12-11T10:45:41.295Z,5.97
2023-12-11T10:46:39.218Z,9.80
2023-12-11T10:47:36.418Z,11.20
2023-12-11T10:48:33.364Z,7.28
2023-12-11T10:49:30.732Z,6.28
2023-12-11T10:50:28.154Z,7.05
2023-12-11T10:51:25.789Z,5.95
2023-12-11T10:52:22.518Z,6.28
2023-12-11T10:53:20.359Z,8.85
2023-12-11T10:54:17.574Z,8.07
2023-12-11T10:55:14.652Z,9.65
2023-12-11T10:56:11.874Z,6.93
2023-12-11T10:57:22.624Z,8.65
2023-12-11T10:58:19.668Z,9.20
2023-12-11T10:59:16.975Z,8.95
2023-12-11T11:00:15.095Z,7.97
2023-12-11T11:01:13.652Z,7.60
2023-12-11T11:02:14.431Z,8.55
2023-12-11T11:03:12.845Z,9.15
2023-12-11T11:04:11.018Z,6.35
2023-12-11T11:05:07.780Z,6.43
2023-12-11T11:06:04.994Z,7.72
2023-12-11T11:07:08.474Z,7.00
2023-12-11T11:08:23.396Z,8.18
2023-12-11T11:09:51.432Z,8.32
2023-12-11T11:10:55.629Z,6.95
2023-12-11T11:12:03.756Z,6.57
2023-12-11T11:13:10.221Z,10.50
2023-12-11T11:14:39.494Z,7.07
2023-12-11T11:15:36.301Z,5.50
2023-12-11T11:16:55.645Z,7.70
2023-12-11T11:18:11.074Z,6.50
2023-12-11T11:19:08.275Z,5.85
2023-12-11T11:20:13.969Z,5.60
2023-12-11T11:21:13.327Z,6.80
2023-12-11T11:22:10.117Z,5.93
2023-12-11T11:23:19.838Z,7.72
2023-12-11T11:24:27.651Z,7.28
2023-12-11T11:25:31.199Z,5.18
2023-12-11T11:26:33.089Z,10.27
2023-12-11T11:27:42.277Z,7.53
2023-12-11T11:28:45.441Z,8.00
2023-12-11T11:29:44.663Z,8.27
2023-12-11T11:30:47.945Z,6.65
2023-12-11T11:31:50.458Z,6.05
2023-12-11T11:33:53.840Z,8.50
2023-12-11T11:34:50.905Z,6.70
2023-12-11T11:35:48.105Z,9.15
2023-12-11T11:36:49.959Z,5.88
2023-12-11T11:37:51.434Z,8.25
2023-12-11T11:38:52.424Z,5.10
2023-12-11T11:40:02.209Z,4.57
2023-12-11T11:41:00.070Z,5.05
2023-12-11T11:41:57.875Z,6.50
2023-12-11T11:42:54.518Z,6.78
2023-12-11T11:43:59.028Z,6.85
2023-12-11T11:44:58.529Z,6.05
2023-12-11T11:45:56.865Z,6.43
2023-12-11T11:46:55.578Z,5.32
2023-12-11T11:47:52.817Z,6.68
2023-12-11T11:48:49.622Z,7.88
2023-12-11T11:49:46.512Z,6.80
2023-12-11T11:50:54.963Z,6.28
2023-12-11T11:51:51.643Z,10.98
2023-12-11T11:52:55.225Z,9.48
2023-12-11T11:54:00.963Z,6.35
2023-12-11T11:55:19.933Z,7.13
2023-12-11T11:56:16.757Z,7.00
2023-12-11T11:57:13.472Z,6.50
2023-12-11T11:58:14.650Z,6.70
2023-12-11T11:59:11.323Z,6.30
2023-12-11T12:00:08.527Z,6.32
2023-12-11T12:01:06.050Z,6.15
2023-12-11T12:02:02.930Z,8.40
2023-12-11T12:03:01.973Z,6.18
2023-12-11T12:03:58.796Z,5.15
2023-12-11T12:04:56.620Z,7.95
2023-12-11T12:05:57.927Z,6.32
2023-12-11T12:06:58.831Z,5.97
2023-12-11T12:07:55.798Z,5.55
2023-12-11T12:08:52.701Z,6.10
2023-12-11T12:10:00.435Z,6.63
2023-12-11T12:11:00.541Z,8.10
2023-12-11T12:11:59.095Z,8.25
2023-12-11T12:12:59.793Z,6.50
2023-12-11T12:13:56.823Z,6.05
2023-12-11T12:15:04.244Z,5.60
2023-12-11T12:16:00.942Z,7.47
2023-12-11T12:16:57.594Z,6.82
2023-12-11T12:17:54.528Z,6.78
2023-12-11T12:18:51.624Z,9.48
2023-12-11T12:19:48.484Z,6.03
2023-12-11T12:20:45.207Z,6.82
2023-12-11T12:21:56.132Z,6.40
2023-12-11T12:23:02.907Z,5.35
2023-12-11T12:24:07.496Z,5.40
2023-12-11T12:25:04.461Z,5.78
2023-12-11T12:26:04.258Z,5.78
2023-12-11T12:27:00.920Z,7.35
2023-12-11T12:28:05.543Z,5.80
2023-12-11T12:29:02.695Z,9.80
2023-12-11T12:29:59.369Z,6.45
2023-12-11T12:30:56.253Z,7.78
2023-12-11T12:31:53.194Z,7.97
2023-12-11T12:32:51.817Z,7.32